sensor_id;sensor_type;location;lat;lon;timestamp;P1;durP1;ratioP1;P2;durP2;ratioP2
40609;SDS011;26316;55.976;37.140;2022-08-21T00:00:42;19.83;;;13.93;;
40609;SDS011;26316;55.976;37.140;2022-08-21T00:03:09;18.33;;;11.80;;
40609;SDS011;26316;55.976;37.140;2022-08-21T00:05:37;24.17;;;15.32;;
40609;SDS011;26316;55.976;37.140;2022-08-21T00:08:05;18.15;;;11.38;;
40609;SDS011;26316;55.976;37.140;2022-08-21T00:10:31;22.95;;;14.70;;
40609;SDS011;26316;55.976;37.140;2022-08-21T00:12:57;28.13;;;15.30;;
40609;SDS011;26316;55.976;37.140;2022-08-21T00:15:25;24.23;;;15.80;;
40609;SDS011;26316;55.976;37.140;2022-08-21T00:17:53;24.42;;;16.50;;
40609;SDS011;26316;55.976;37.140;2022-08-21T00:20:20;21.25;;;15.38;;
40609;SDS011;26316;55.976;37.140;2022-08-21T00:22:47;29.50;;;17.67;;
40609;SDS011;26316;55.976;37.140;2022-08-21T00:25:14;23.63;;;16.75;;
40609;SDS011;26316;55.976;37.140;2022-08-21T00:27:40;24.08;;;16.23;;
40609;SDS011;26316;55.976;37.140;2022-08-21T00:30:11;24.80;;;15.88;;
40609;SDS011;26316;55.976;37.140;2022-08-21T00:32:39;24.08;;;16.35;;
40609;SDS011;26316;55.976;37.140;2022-08-21T00:35:06;28.20;;;19.63;;
40609;SDS011;26316;55.976;37.140;2022-08-21T00:37:34;26.73;;;18.23;;
40609;SDS011;26316;55.976;37.140;2022-08-21T00:40:00;28.00;;;18.35;;
40609;SDS011;26316;55.976;37.140;2022-08-21T00:42:26;28.60;;;19.33;;
40609;SDS011;26316;55.976;37.140;2022-08-21T00:44:53;25.02;;;18.02;;
40609;SDS011;26316;55.976;37.140;2022-08-21T00:47:19;31.13;;;19.13;;
40609;SDS011;26316;55.976;37.140;2022-08-21T00:49:45;26.48;;;18.48;;
40609;SDS011;26316;55.976;37.140;2022-08-21T00:52:13;28.92;;;19.25;;
40609;SDS011;26316;55.976;37.140;2022-08-21T00:54:43;26.15;;;16.15;;
40609;SDS011;26316;55.976;37.140;2022-08-21T00:57:10;30.17;;;18.83;;
40609;SDS011;26316;55.976;37.140;2022-08-21T00:59:43;27.98;;;19.02;;
40609;SDS011;26316;55.976;37.140;2022-08-21T01:02:09;30.48;;;20.80;;
40609;SDS011;26316;55.976;37.140;2022-08-21T01:04:35;38.15;;;20.83;;
40609;SDS011;26316;55.976;37.140;2022-08-21T01:07:01;29.95;;;20.23;;
40609;SDS011;26316;55.976;37.140;2022-08-21T01:09:27;39.72;;;22.08;;
40609;SDS011;26316;55.976;37.140;2022-08-21T01:11:53;34.72;;;21.00;;
40609;SDS011;26316;55.976;37.140;2022-08-21T01:14:19;29.65;;;19.05;;
40609;SDS011;26316;55.976;37.140;2022-08-21T01:16:46;30.35;;;20.75;;
40609;SDS011;26316;55.976;37.140;2022-08-21T01:19:14;32.67;;;21.23;;
40609;SDS011;26316;55.976;37.140;2022-08-21T01:21:50;31.63;;;19.55;;
40609;SDS011;26316;55.976;37.140;2022-08-21T01:24:17;31.90;;;20.73;;
40609;SDS011;26316;55.976;37.140;2022-08-21T01:26:43;32.30;;;21.42;;
40609;SDS011;26316;55.976;37.140;2022-08-21T01:32:07;32.90;;;22.20;;
40609;SDS011;26316;55.976;37.140;2022-08-21T01:34:39;30.42;;;21.10;;
40609;SDS011;26316;55.976;37.140;2022-08-21T01:37:06;27.85;;;20.10;;
40609;SDS011;26316;55.976;37.140;2022-08-21T01:39:32;31.38;;;20.48;;
40609;SDS011;26316;55.976;37.140;2022-08-21T01:41:59;32.67;;;21.67;;
40609;SDS011;26316;55.976;37.140;2022-08-21T01:44:25;28.25;;;19.20;;
40609;SDS011;26316;55.976;37.140;2022-08-21T01:46:51;36.30;;;22.70;;
40609;SDS011;26316;55.976;37.140;2022-08-21T01:49:20;32.42;;;21.70;;
40609;SDS011;26316;55.976;37.140;2022-08-21T01:51:49;32.45;;;21.73;;
40609;SDS011;26316;55.976;37.140;2022-08-21T01:54:15;33.38;;;20.63;;
40609;SDS011;26316;55.976;37.140;2022-08-21T01:56:45;31.85;;;21.02;;
40609;SDS011;26316;55.976;37.140;2022-08-21T01:59:12;40.45;;;22.60;;
40609;SDS011;26316;55.976;37.140;2022-08-21T02:01:38;33.17;;;22.45;;
40609;SDS011;26316;55.976;37.140;2022-08-21T02:04:07;36.70;;;21.33;;
40609;SDS011;26316;55.976;37.140;2022-08-21T02:06:34;35.60;;;23.10;;
40609;SDS011;26316;55.976;37.140;2022-08-21T02:09:01;31.15;;;21.88;;
40609;SDS011;26316;55.976;37.140;2022-08-21T02:11:31;31.90;;;21.48;;
40609;SDS011;26316;55.976;37.140;2022-08-21T02:13:57;29.88;;;20.63;;
40609;SDS011;26316;55.976;37.140;2022-08-21T02:16:23;36.03;;;21.65;;
40609;SDS011;26316;55.976;37.140;2022-08-21T02:18:49;33.80;;;21.23;;
40609;SDS011;26316;55.976;37.140;2022-08-21T02:21:15;32.63;;;19.90;;
40609;SDS011;26316;55.976;37.140;2022-08-21T02:23:41;37.38;;;20.40;;
40609;SDS011;26316;55.976;37.140;2022-08-21T02:26:07;32.90;;;21.75;;
40609;SDS011;26316;55.976;37.140;2022-08-21T02:28:34;32.55;;;20.80;;
40609;SDS011;26316;55.976;37.140;2022-08-21T02:31:00;32.17;;;19.65;;
40609;SDS011;26316;55.976;37.140;2022-08-21T02:33:26;28.20;;;19.08;;
40609;SDS011;26316;55.976;37.140;2022-08-21T02:35:53;30.15;;;19.30;;
40609;SDS011;26316;55.976;37.140;2022-08-21T02:38:22;31.60;;;20.08;;
40609;SDS011;26316;55.976;37.140;2022-08-21T02:40:50;31.25;;;19.60;;
40609;SDS011;26316;55.976;37.140;2022-08-21T02:43:18;33.08;;;20.00;;
40609;SDS011;26316;55.976;37.140;2022-08-21T02:45:45;31.20;;;20.02;;
40609;SDS011;26316;55.976;37.140;2022-08-21T02:48:14;27.70;;;19.52;;
40609;SDS011;26316;55.976;37.140;2022-08-21T02:53:09;29.90;;;20.45;;
40609;SDS011;26316;55.976;37.140;2022-08-21T02:55:36;31.52;;;20.25;;
40609;SDS011;26316;55.976;37.140;2022-08-21T02:58:04;28.83;;;20.35;;
40609;SDS011;26316;55.976;37.140;2022-08-21T03:00:31;30.10;;;20.10;;
40609;SDS011;26316;55.976;37.140;2022-08-21T03:02:58;33.63;;;19.00;;
40609;SDS011;26316;55.976;37.140;2022-08-21T03:05:26;30.40;;;19.90;;
40609;SDS011;26316;55.976;37.140;2022-08-21T03:07:53;39.38;;;19.63;;
40609;SDS011;26316;55.976;37.140;2022-08-21T03:10:19;31.52;;;19.40;;
40609;SDS011;26316;55.976;37.140;2022-08-21T03:12:46;34.45;;;19.75;;
40609;SDS011;26316;55.976;37.140;2022-08-21T03:15:14;28.58;;;17.77;;
40609;SDS011;26316;55.976;37.140;2022-08-21T03:17:42;26.45;;;18.42;;
40609;SDS011;26316;55.976;37.140;2022-08-21T03:20:09;30.48;;;19.75;;
40609;SDS011;26316;55.976;37.140;2022-08-21T03:22:35;30.90;;;18.67;;
40609;SDS011;26316;55.976;37.140;2022-08-21T03:25:02;30.15;;;19.58;;
40609;SDS011;26316;55.976;37.140;2022-08-21T03:27:29;31.98;;;17.80;;
40609;SDS011;26316;55.976;37.140;2022-08-21T03:29:59;28.38;;;18.55;;
40609;SDS011;26316;55.976;37.140;2022-08-21T03:32:26;31.92;;;17.90;;
40609;SDS011;26316;55.976;37.140;2022-08-21T03:34:52;32.20;;;18.63;;
40609;SDS011;26316;55.976;37.140;2022-08-21T03:37:18;33.58;;;19.27;;
40609;SDS011;26316;55.976;37.140;2022-08-21T03:39:44;32.05;;;19.23;;
40609;SDS011;26316;55.976;37.140;2022-08-21T03:42:10;30.92;;;17.60;;
40609;SDS011;26316;55.976;37.140;2022-08-21T03:44:37;27.17;;;17.75;;
40609;SDS011;26316;55.976;37.140;2022-08-21T03:47:04;32.17;;;19.15;;
40609;SDS011;26316;55.976;37.140;2022-08-21T03:49:30;27.45;;;18.90;;
40609;SDS011;26316;55.976;37.140;2022-08-21T03:51:56;23.95;;;17.15;;
40609;SDS011;26316;55.976;37.140;2022-08-21T03:54:22;30.17;;;18.42;;
40609;SDS011;26316;55.976;37.140;2022-08-21T03:56:48;27.40;;;18.95;;
40609;SDS011;26316;55.976;37.140;2022-08-21T03:59:14;35.50;;;19.55;;
40609;SDS011;26316;55.976;37.140;2022-08-21T04:01:50;27.70;;;17.98;;
40609;SDS011;26316;55.976;37.140;2022-08-21T04:04:22;27.95;;;19.45;;
40609;SDS011;26316;55.976;37.140;2022-08-21T04:06:48;28.63;;;19.13;;
40609;SDS011;26316;55.976;37.140;2022-08-21T04:09:15;27.98;;;18.50;;
40609;SDS011;26316;55.976;37.140;2022-08-21T04:11:42;29.05;;;18.70;;
40609;SDS011;26316;55.976;37.140;2022-08-21T04:14:08;23.42;;;17.85;;
40609;SDS011;26316;55.976;37.140;2022-08-21T04:16:34;33.80;;;19.20;;
40609;SDS011;26316;55.976;37.140;2022-08-21T04:19:00;25.80;;;18.88;;
40609;SDS011;26316;55.976;37.140;2022-08-21T04:21:29;27.90;;;18.17;;
40609;SDS011;26316;55.976;37.140;2022-08-21T04:23:55;31.25;;;19.13;;
40609;SDS011;26316;55.976;37.140;2022-08-21T04:26:21;29.15;;;19.10;;
40609;SDS011;26316;55.976;37.140;2022-08-21T04:28:47;33.85;;;19.25;;
40609;SDS011;26316;55.976;37.140;2022-08-21T04:31:30;24.52;;;16.98;;
40609;SDS011;26316;55.976;37.140;2022-08-21T04:34:06;32.35;;;19.98;;
40609;SDS011;26316;55.976;37.140;2022-08-21T04:36:32;31.10;;;20.30;;
40609;SDS011;26316;55.976;37.140;2022-08-21T04:38:58;33.00;;;19.98;;
40609;SDS011;26316;55.976;37.140;2022-08-21T04:41:24;38.67;;;20.05;;
40609;SDS011;26316;55.976;37.140;2022-08-21T04:43:50;32.47;;;20.52;;
40609;SDS011;26316;55.976;37.140;2022-08-21T04:46:16;29.80;;;19.83;;
40609;SDS011;26316;55.976;37.140;2022-08-21T04:48:44;30.70;;;19.48;;
40609;SDS011;26316;55.976;37.140;2022-08-21T04:51:12;38.45;;;20.60;;
40609;SDS011;26316;55.976;37.140;2022-08-21T04:54:14;31.55;;;20.45;;
40609;SDS011;26316;55.976;37.140;2022-08-21T04:59:10;34.10;;;20.90;;
40609;SDS011;26316;55.976;37.140;2022-08-21T05:01:39;28.23;;;19.65;;
40609;SDS011;26316;55.976;37.140;2022-08-21T05:04:10;34.25;;;21.08;;
40609;SDS011;26316;55.976;37.140;2022-08-21T05:06:38;34.88;;;21.75;;
40609;SDS011;26316;55.976;37.140;2022-08-21T05:09:07;36.08;;;22.75;;
40609;SDS011;26316;55.976;37.140;2022-08-21T05:11:34;35.22;;;21.52;;
40609;SDS011;26316;55.976;37.140;2022-08-21T05:14:02;30.02;;;21.63;;
40609;SDS011;26316;55.976;37.140;2022-08-21T05:16:28;34.70;;;21.08;;
40609;SDS011;26316;55.976;37.140;2022-08-21T05:18:54;34.63;;;20.75;;
40609;SDS011;26316;55.976;37.140;2022-08-21T05:21:20;38.10;;;22.35;;
40609;SDS011;26316;55.976;37.140;2022-08-21T05:23:46;32.95;;;20.77;;
40609;SDS011;26316;55.976;37.140;2022-08-21T05:26:12;38.05;;;21.48;;
40609;SDS011;26316;55.976;37.140;2022-08-21T05:28:38;35.70;;;21.98;;
40609;SDS011;26316;55.976;37.140;2022-08-21T05:31:03;33.00;;;21.38;;
40609;SDS011;26316;55.976;37.140;2022-08-21T05:33:29;31.02;;;20.73;;
40609;SDS011;26316;55.976;37.140;2022-08-21T05:35:55;33.08;;;22.13;;
40609;SDS011;26316;55.976;37.140;2022-08-21T05:38:22;38.90;;;22.77;;
40609;SDS011;26316;55.976;37.140;2022-08-21T05:40:48;38.00;;;22.45;;
40609;SDS011;26316;55.976;37.140;2022-08-21T05:43:14;29.92;;;20.63;;
40609;SDS011;26316;55.976;37.140;2022-08-21T05:45:40;34.78;;;21.90;;
40609;SDS011;26316;55.976;37.140;2022-08-21T05:48:09;36.30;;;24.00;;
40609;SDS011;26316;55.976;37.140;2022-08-21T05:50:42;32.55;;;22.33;;
40609;SDS011;26316;55.976;37.140;2022-08-21T05:53:11;35.45;;;22.35;;
40609;SDS011;26316;55.976;37.140;2022-08-21T05:55:40;44.83;;;25.60;;
40609;SDS011;26316;55.976;37.140;2022-08-21T05:58:06;34.13;;;22.40;;
40609;SDS011;26316;55.976;37.140;2022-08-21T06:00:32;29.15;;;20.48;;
40609;SDS011;26316;55.976;37.140;2022-08-21T06:02:59;26.33;;;20.40;;
40609;SDS011;26316;55.976;37.140;2022-08-21T06:05:29;33.45;;;22.50;;
40609;SDS011;26316;55.976;37.140;2022-08-21T06:08:24;31.15;;;20.85;;
40609;SDS011;26316;55.976;37.140;2022-08-21T06:11:01;43.67;;;22.83;;
40609;SDS011;26316;55.976;37.140;2022-08-21T06:13:31;32.95;;;21.92;;
40609;SDS011;26316;55.976;37.140;2022-08-21T06:18:36;42.08;;;25.13;;
40609;SDS011;26316;55.976;37.140;2022-08-21T06:21:02;36.63;;;23.88;;
40609;SDS011;26316;55.976;37.140;2022-08-21T06:23:28;38.53;;;24.55;;
40609;SDS011;26316;55.976;37.140;2022-08-21T06:25:54;40.75;;;24.13;;
40609;SDS011;26316;55.976;37.140;2022-08-21T06:28:22;44.33;;;24.77;;
40609;SDS011;26316;55.976;37.140;2022-08-21T06:31:17;37.67;;;23.13;;
40609;SDS011;26316;55.976;37.140;2022-08-21T06:33:44;42.53;;;24.23;;
40609;SDS011;26316;55.976;37.140;2022-08-21T06:36:11;38.88;;;24.73;;
40609;SDS011;26316;55.976;37.140;2022-08-21T06:38:37;38.17;;;23.35;;
40609;SDS011;26316;55.976;37.140;2022-08-21T06:41:03;36.22;;;21.70;;
40609;SDS011;26316;55.976;37.140;2022-08-21T06:43:30;34.25;;;20.80;;
40609;SDS011;26316;55.976;37.140;2022-08-21T06:45:56;35.70;;;21.52;;
40609;SDS011;26316;55.976;37.140;2022-08-21T06:48:22;34.95;;;21.63;;
40609;SDS011;26316;55.976;37.140;2022-08-21T06:50:48;31.15;;;20.75;;
40609;SDS011;26316;55.976;37.140;2022-08-21T06:53:18;33.85;;;21.75;;
40609;SDS011;26316;55.976;37.140;2022-08-21T06:55:45;35.63;;;21.75;;
40609;SDS011;26316;55.976;37.140;2022-08-21T06:58:15;30.02;;;21.33;;
40609;SDS011;26316;55.976;37.140;2022-08-21T07:00:43;32.47;;;21.63;;
40609;SDS011;26316;55.976;37.140;2022-08-21T07:03:18;32.72;;;21.75;;
40609;SDS011;26316;55.976;37.140;2022-08-21T07:05:44;28.77;;;21.13;;
40609;SDS011;26316;55.976;37.140;2022-08-21T07:08:10;35.97;;;21.63;;
40609;SDS011;26316;55.976;37.140;2022-08-21T07:10:36;43.47;;;20.95;;
40609;SDS011;26316;55.976;37.140;2022-08-21T07:13:02;37.55;;;21.65;;
40609;SDS011;26316;55.976;37.140;2022-08-21T07:15:28;33.75;;;21.00;;
40609;SDS011;26316;55.976;37.140;2022-08-21T07:17:54;44.25;;;21.70;;
40609;SDS011;26316;55.976;37.140;2022-08-21T07:20:21;25.90;;;19.83;;
40609;SDS011;26316;55.976;37.140;2022-08-21T07:22:47;30.27;;;20.85;;
40609;SDS011;26316;55.976;37.140;2022-08-21T07:25:13;31.90;;;21.65;;
40609;SDS011;26316;55.976;37.140;2022-08-21T07:27:39;31.35;;;20.42;;
40609;SDS011;26316;55.976;37.140;2022-08-21T07:30:08;30.85;;;20.63;;
40609;SDS011;26316;55.976;37.140;2022-08-21T07:32:34;35.90;;;20.48;;
40609;SDS011;26316;55.976;37.140;2022-08-21T07:35:00;33.53;;;20.70;;
40609;SDS011;26316;55.976;37.140;2022-08-21T07:37:26;30.42;;;20.52;;
40609;SDS011;26316;55.976;37.140;2022-08-21T07:39:52;28.90;;;19.58;;
40609;SDS011;26316;55.976;37.140;2022-08-21T07:42:17;35.95;;;22.60;;
40609;SDS011;26316;55.976;37.140;2022-08-21T07:44:43;67.90;;;26.52;;
40609;SDS011;26316;55.976;37.140;2022-08-21T07:47:09;85.20;;;27.73;;
40609;SDS011;26316;55.976;37.140;2022-08-21T07:49:35;96.13;;;27.48;;
40609;SDS011;26316;55.976;37.140;2022-08-21T07:52:01;61.08;;;26.60;;
40609;SDS011;26316;55.976;37.140;2022-08-21T07:54:27;59.25;;;26.00;;
40609;SDS011;26316;55.976;37.140;2022-08-21T07:56:53;54.72;;;24.85;;
40609;SDS011;26316;55.976;37.140;2022-08-21T07:59:19;52.63;;;24.25;;
40609;SDS011;26316;55.976;37.140;2022-08-21T08:01:45;56.60;;;26.05;;
40609;SDS011;26316;55.976;37.140;2022-08-21T08:04:13;47.90;;;25.85;;
40609;SDS011;26316;55.976;37.140;2022-08-21T08:06:41;49.67;;;24.58;;
40609;SDS011;26316;55.976;37.140;2022-08-21T08:09:07;47.28;;;24.35;;
40609;SDS011;26316;55.976;37.140;2022-08-21T08:11:41;42.25;;;23.30;;
40609;SDS011;26316;55.976;37.140;2022-08-21T08:14:09;39.47;;;22.45;;
40609;SDS011;26316;55.976;37.140;2022-08-21T08:16:35;47.42;;;21.52;;
40609;SDS011;26316;55.976;37.140;2022-08-21T08:19:01;34.60;;;21.88;;
40609;SDS011;26316;55.976;37.140;2022-08-21T08:21:28;33.83;;;20.45;;
40609;SDS011;26316;55.976;37.140;2022-08-21T08:23:54;32.92;;;20.98;;
40609;SDS011;26316;55.976;37.140;2022-08-21T08:26:20;36.95;;;21.75;;
40609;SDS011;26316;55.976;37.140;2022-08-21T08:28:46;32.70;;;20.83;;
40609;SDS011;26316;55.976;37.140;2022-08-21T08:31:13;33.22;;;20.45;;
40609;SDS011;26316;55.976;37.140;2022-08-21T08:33:39;27.73;;;20.13;;
40609;SDS011;26316;55.976;37.140;2022-08-21T08:36:05;38.45;;;21.20;;
40609;SDS011;26316;55.976;37.140;2022-08-21T08:38:31;36.45;;;18.92;;
40609;SDS011;26316;55.976;37.140;2022-08-21T08:41:10;31.67;;;19.13;;
40609;SDS011;26316;55.976;37.140;2022-08-21T08:43:54;34.60;;;18.65;;
40609;SDS011;26316;55.976;37.140;2022-08-21T08:46:33;30.80;;;18.77;;
40609;SDS011;26316;55.976;37.140;2022-08-21T08:49:15;29.88;;;17.88;;
40609;SDS011;26316;55.976;37.140;2022-08-21T08:54:21;27.08;;;17.63;;
40609;SDS011;26316;55.976;37.140;2022-08-21T08:57:01;32.22;;;18.48;;
40609;SDS011;26316;55.976;37.140;2022-08-21T08:59:42;27.88;;;16.95;;
40609;SDS011;26316;55.976;37.140;2022-08-21T09:02:11;27.95;;;15.38;;
40609;SDS011;26316;55.976;37.140;2022-08-21T09:04:40;23.75;;;14.55;;
40609;SDS011;26316;55.976;37.140;2022-08-21T09:10:36;22.73;;;14.65;;
40609;SDS011;26316;55.976;37.140;2022-08-21T09:13:19;21.98;;;14.57;;
40609;SDS011;26316;55.976;37.140;2022-08-21T09:18:31;26.05;;;14.57;;
40609;SDS011;26316;55.976;37.140;2022-08-21T09:26:31;28.02;;;13.57;;
40609;SDS011;26316;55.976;37.140;2022-08-21T09:29:06;23.95;;;13.85;;
40609;SDS011;26316;55.976;37.140;2022-08-21T09:31:33;21.60;;;12.85;;
40609;SDS011;26316;55.976;37.140;2022-08-21T09:34:05;26.75;;;13.38;;
40609;SDS011;26316;55.976;37.140;2022-08-21T09:36:43;20.88;;;12.45;;
40609;SDS011;26316;55.976;37.140;2022-08-21T09:39:26;22.85;;;11.60;;
40609;SDS011;26316;55.976;37.140;2022-08-21T09:42:00;27.75;;;13.40;;
40609;SDS011;26316;55.976;37.140;2022-08-21T09:44:29;25.75;;;13.80;;
40609;SDS011;26316;55.976;37.140;2022-08-21T09:46:57;26.55;;;12.43;;
40609;SDS011;26316;55.976;37.140;2022-08-21T09:49:26;29.20;;;15.07;;
40609;SDS011;26316;55.976;37.140;2022-08-21T09:51:54;33.65;;;16.80;;
40609;SDS011;26316;55.976;37.140;2022-08-21T09:54:20;39.22;;;18.45;;
40609;SDS011;26316;55.976;37.140;2022-08-21T09:59:36;32.67;;;17.45;;
40609;SDS011;26316;55.976;37.140;2022-08-21T10:02:15;38.38;;;19.25;;
40609;SDS011;26316;55.976;37.140;2022-08-21T10:04:51;30.83;;;15.82;;
40609;SDS011;26316;55.976;37.140;2022-08-21T10:07:23;35.13;;;16.55;;
40609;SDS011;26316;55.976;37.140;2022-08-21T10:10:05;32.88;;;15.98;;
40609;SDS011;26316;55.976;37.140;2022-08-21T10:16:35;27.45;;;15.52;;
40609;SDS011;26316;55.976;37.140;2022-08-21T10:21:30;26.00;;;14.43;;
40609;SDS011;26316;55.976;37.140;2022-08-21T10:27:24;23.00;;;12.70;;
40609;SDS011;26316;55.976;37.140;2022-08-21T10:29:50;21.13;;;12.65;;
40609;SDS011;26316;55.976;37.140;2022-08-21T10:32:29;19.73;;;11.50;;
40609;SDS011;26316;55.976;37.140;2022-08-21T10:40:27;20.50;;;11.32;;
40609;SDS011;26316;55.976;37.140;2022-08-21T10:43:09;15.73;;;11.75;;
40609;SDS011;26316;55.976;37.140;2022-08-21T10:46:00;20.70;;;11.18;;
40609;SDS011;26316;55.976;37.140;2022-08-21T10:48:35;21.10;;;10.80;;
40609;SDS011;26316;55.976;37.140;2022-08-21T10:51:09;19.08;;;10.85;;
40609;SDS011;26316;55.976;37.140;2022-08-21T10:56:31;14.43;;;10.57;;
40609;SDS011;26316;55.976;37.140;2022-08-21T11:06:53;20.38;;;10.32;;
40609;SDS011;26316;55.976;37.140;2022-08-21T11:09:26;17.17;;;10.10;;
40609;SDS011;26316;55.976;37.140;2022-08-21T11:11:57;17.17;;;10.07;;
40609;SDS011;26316;55.976;37.140;2022-08-21T11:14:39;19.23;;;10.07;;
40609;SDS011;26316;55.976;37.140;2022-08-21T11:17:09;22.10;;;10.05;;
40609;SDS011;26316;55.976;37.140;2022-08-21T11:22:36;25.20;;;10.48;;
40609;SDS011;26316;55.976;37.140;2022-08-21T11:25:10;21.10;;;10.20;;
40609;SDS011;26316;55.976;37.140;2022-08-21T11:35:45;17.65;;;10.48;;
40609;SDS011;26316;55.976;37.140;2022-08-21T11:47:10;21.90;;;11.15;;
40609;SDS011;26316;55.976;37.140;2022-08-21T11:52:30;19.30;;;10.57;;
40609;SDS011;26316;55.976;37.140;2022-08-21T11:55:07;17.65;;;9.82;;
40609;SDS011;26316;55.976;37.140;2022-08-21T12:00:15;17.38;;;9.65;;
40609;SDS011;26316;55.976;37.140;2022-08-21T12:02:55;20.77;;;10.45;;
40609;SDS011;26316;55.976;37.140;2022-08-21T12:05:36;19.45;;;9.93;;
40609;SDS011;26316;55.976;37.140;2022-08-21T12:11:08;18.95;;;10.05;;
40609;SDS011;26316;55.976;37.140;2022-08-21T12:13:39;15.43;;;9.75;;
40609;SDS011;26316;55.976;37.140;2022-08-21T12:16:13;17.30;;;9.80;;
40609;SDS011;26316;55.976;37.140;2022-08-21T12:18:42;20.38;;;9.70;;
40609;SDS011;26316;55.976;37.140;2022-08-21T12:23:45;15.07;;;8.32;;
40609;SDS011;26316;55.976;37.140;2022-08-21T12:26:25;17.25;;;8.43;;
40609;SDS011;26316;55.976;37.140;2022-08-21T12:31:47;16.52;;;8.10;;
40609;SDS011;26316;55.976;37.140;2022-08-21T12:34:38;20.08;;;7.18;;
40609;SDS011;26316;55.976;37.140;2022-08-21T12:37:30;12.88;;;7.32;;
40609;SDS011;26316;55.976;37.140;2022-08-21T12:43:18;18.75;;;8.52;;
40609;SDS011;26316;55.976;37.140;2022-08-21T12:45:47;21.67;;;7.47;;
40609;SDS011;26316;55.976;37.140;2022-08-21T12:48:26;19.15;;;7.40;;
40609;SDS011;26316;55.976;37.140;2022-08-21T12:50:56;18.60;;;7.15;;
40609;SDS011;26316;55.976;37.140;2022-08-21T12:53:30;17.63;;;7.75;;
40609;SDS011;26316;55.976;37.140;2022-08-21T12:56:03;19.40;;;8.38;;
40609;SDS011;26316;55.976;37.140;2022-08-21T12:58:30;13.90;;;7.40;;
40609;SDS011;26316;55.976;37.140;2022-08-21T13:00:59;15.93;;;8.43;;
40609;SDS011;26316;55.976;37.140;2022-08-21T13:03:31;14.55;;;7.68;;
40609;SDS011;26316;55.976;37.140;2022-08-21T13:06:00;18.25;;;7.95;;
40609;SDS011;26316;55.976;37.140;2022-08-21T13:08:29;14.18;;;7.47;;
40609;SDS011;26316;55.976;37.140;2022-08-21T13:11:03;15.95;;;7.90;;
40609;SDS011;26316;55.976;37.140;2022-08-21T13:13:30;16.05;;;7.50;;
40609;SDS011;26316;55.976;37.140;2022-08-21T13:15:59;13.55;;;7.70;;
40609;SDS011;26316;55.976;37.140;2022-08-21T13:18:29;15.57;;;8.55;;
40609;SDS011;26316;55.976;37.140;2022-08-21T13:21:07;20.65;;;7.75;;
40609;SDS011;26316;55.976;37.140;2022-08-21T13:23:36;14.57;;;6.97;;
40609;SDS011;26316;55.976;37.140;2022-08-21T13:26:11;18.77;;;7.68;;
40609;SDS011;26316;55.976;37.140;2022-08-21T13:28:41;19.13;;;7.53;;
40609;SDS011;26316;55.976;37.140;2022-08-21T13:31:09;15.85;;;6.97;;
40609;SDS011;26316;55.976;37.140;2022-08-21T13:33:38;13.50;;;7.43;;
40609;SDS011;26316;55.976;37.140;2022-08-21T13:36:10;16.05;;;8.18;;
40609;SDS011;26316;55.976;37.140;2022-08-21T13:38:40;13.63;;;7.43;;
40609;SDS011;26316;55.976;37.140;2022-08-21T13:43:56;14.52;;;7.07;;
40609;SDS011;26316;55.976;37.140;2022-08-21T13:46:28;15.80;;;6.85;;
40609;SDS011;26316;55.976;37.140;2022-08-21T13:48:56;22.67;;;8.13;;
40609;SDS011;26316;55.976;37.140;2022-08-21T13:51:27;19.80;;;8.18;;
40609;SDS011;26316;55.976;37.140;2022-08-21T13:53:55;14.10;;;7.07;;
40609;SDS011;26316;55.976;37.140;2022-08-21T13:58:59;15.25;;;7.40;;
40609;SDS011;26316;55.976;37.140;2022-08-21T14:01:27;17.73;;;7.40;;
40609;SDS011;26316;55.976;37.140;2022-08-21T14:04:14;14.10;;;6.80;;
40609;SDS011;26316;55.976;37.140;2022-08-21T14:06:44;13.15;;;7.10;;
40609;SDS011;26316;55.976;37.140;2022-08-21T14:09:12;19.13;;;6.57;;
40609;SDS011;26316;55.976;37.140;2022-08-21T14:11:40;10.85;;;5.90;;
40609;SDS011;26316;55.976;37.140;2022-08-21T14:14:39;16.10;;;6.72;;
40609;SDS011;26316;55.976;37.140;2022-08-21T14:17:03;14.55;;;7.40;;
40609;SDS011;26316;55.976;37.140;2022-08-21T14:19:49;11.82;;;6.80;;
40609;SDS011;26316;55.976;37.140;2022-08-21T14:27:44;13.18;;;7.00;;
40609;SDS011;26316;55.976;37.140;2022-08-21T14:30:26;18.55;;;6.82;;
40609;SDS011;26316;55.976;37.140;2022-08-21T14:32:54;15.25;;;5.93;;
40609;SDS011;26316;55.976;37.140;2022-08-21T14:35:20;11.52;;;5.85;;
40609;SDS011;26316;55.976;37.140;2022-08-21T14:37:47;8.70;;;5.95;;
40609;SDS011;26316;55.976;37.140;2022-08-21T14:40:15;11.35;;;6.38;;
40609;SDS011;26316;55.976;37.140;2022-08-21T14:42:42;13.07;;;6.40;;
40609;SDS011;26316;55.976;37.140;2022-08-21T14:45:17;17.67;;;6.22;;
40609;SDS011;26316;55.976;37.140;2022-08-21T14:47:43;12.57;;;6.45;;
40609;SDS011;26316;55.976;37.140;2022-08-21T14:50:12;18.17;;;6.30;;
40609;SDS011;26316;55.976;37.140;2022-08-21T14:52:38;10.13;;;6.10;;
40609;SDS011;26316;55.976;37.140;2022-08-21T14:55:06;8.20;;;5.85;;
40609;SDS011;26316;55.976;37.140;2022-08-21T14:57:33;11.95;;;6.32;;
40609;SDS011;26316;55.976;37.140;2022-08-21T14:59:59;10.10;;;6.35;;
40609;SDS011;26316;55.976;37.140;2022-08-21T15:02:26;13.65;;;6.68;;
40609;SDS011;26316;55.976;37.140;2022-08-21T15:04:51;12.15;;;6.25;;
40609;SDS011;26316;55.976;37.140;2022-08-21T15:07:17;15.07;;;6.40;;
40609;SDS011;26316;55.976;37.140;2022-08-21T15:09:43;17.88;;;6.82;;
40609;SDS011;26316;55.976;37.140;2022-08-21T15:12:09;11.20;;;6.10;;
40609;SDS011;26316;55.976;37.140;2022-08-21T15:14:38;23.58;;;7.40;;
40609;SDS011;26316;55.976;37.140;2022-08-21T15:17:05;9.15;;;6.88;;
40609;SDS011;26316;55.976;37.140;2022-08-21T15:19:31;12.13;;;7.00;;
40609;SDS011;26316;55.976;37.140;2022-08-21T15:21:57;15.65;;;6.15;;
40609;SDS011;26316;55.976;37.140;2022-08-21T15:24:23;15.85;;;6.18;;
40609;SDS011;26316;55.976;37.140;2022-08-21T15:26:49;23.27;;;6.45;;
40609;SDS011;26316;55.976;37.140;2022-08-21T15:29:16;11.88;;;5.20;;
40609;SDS011;26316;55.976;37.140;2022-08-21T15:31:54;11.68;;;5.45;;
40609;SDS011;26316;55.976;37.140;2022-08-21T15:34:25;7.70;;;5.32;;
40609;SDS011;26316;55.976;37.140;2022-08-21T15:36:53;13.55;;;4.90;;
40609;SDS011;26316;55.976;37.140;2022-08-21T15:41:48;10.70;;;4.93;;
40609;SDS011;26316;55.976;37.140;2022-08-21T15:44:14;10.20;;;4.40;;
40609;SDS011;26316;55.976;37.140;2022-08-21T15:46:40;10.88;;;4.85;;
40609;SDS011;26316;55.976;37.140;2022-08-21T15:49:06;9.60;;;3.78;;
40609;SDS011;26316;55.976;37.140;2022-08-21T15:51:33;10.82;;;4.07;;
40609;SDS011;26316;55.976;37.140;2022-08-21T15:53:59;9.23;;;4.40;;
40609;SDS011;26316;55.976;37.140;2022-08-21T15:56:35;9.73;;;3.97;;
40609;SDS011;26316;55.976;37.140;2022-08-21T16:01:53;18.98;;;4.22;;
40609;SDS011;26316;55.976;37.140;2022-08-21T16:04:23;14.00;;;3.80;;
40609;SDS011;26316;55.976;37.140;2022-08-21T16:06:50;10.38;;;3.75;;
40609;SDS011;26316;55.976;37.140;2022-08-21T16:09:16;8.27;;;4.82;;
40609;SDS011;26316;55.976;37.140;2022-08-21T16:11:42;8.32;;;4.07;;